createdAt,value
2018-11-23T00:01:07.410Z,74.95
2018-11-23T00:03:37.313Z,70.30
2018-11-23T00:06:07.238Z,68.80
2018-11-23T00:08:39.102Z,66.30
2018-11-23T00:11:09.032Z,68.75
2018-11-23T00:13:38.926Z,73.05
2018-11-23T00:16:08.910Z,65.25
2018-11-23T00:18:38.750Z,58.40
2018-11-23T00:21:09.593Z,66.17
2018-11-23T00:23:39.501Z,75.52
2018-11-23T00:26:09.446Z,67.20
2018-11-23T00:28:40.393Z,72.90
2018-11-23T00:31:10.290Z,74.25
2018-11-23T00:33:40.181Z,82.40
2018-11-23T00:36:10.090Z,63.02
2018-11-23T00:38:39.969Z,65.70
2018-11-23T00:41:09.862Z,70.92
2018-11-23T00:43:39.971Z,70.75
2018-11-23T00:46:09.855Z,77.03
2018-11-23T00:48:39.734Z,76.15
2018-11-23T00:51:13.028Z,71.17
2018-11-23T00:53:42.890Z,64.67
2018-11-23T00:56:12.813Z,77.08
2018-11-23T00:58:42.706Z,73.87
2018-11-23T01:01:12.593Z,66.15
2018-11-23T01:03:42.481Z,72.22
2018-11-23T01:06:13.347Z,82.33
2018-11-23T01:08:44.258Z,78.92
2018-11-23T01:11:15.130Z,70.10
2018-11-23T01:13:45.030Z,77.12
2018-11-23T01:16:15.884Z,72.42
2018-11-23T01:18:45.741Z,79.50
2018-11-23T01:21:15.582Z,70.90
2018-11-23T01:23:45.409Z,85.60
2018-11-23T01:26:15.225Z,85.57
2018-11-23T01:28:45.085Z,75.52
2018-11-23T01:31:16.223Z,79.10
2018-11-23T01:33:46.134Z,74.92
2018-11-23T01:36:16.038Z,67.80
2018-11-23T01:38:45.906Z,70.47
2018-11-23T01:41:15.714Z,73.17
2018-11-23T01:43:45.566Z,67.55
2018-11-23T01:46:15.423Z,64.55
2018-11-23T01:48:46.268Z,75.30
2018-11-23T01:51:16.134Z,65.57
2018-11-23T01:53:47.926Z,72.90
2018-11-23T01:56:19.790Z,66.42
2018-11-23T01:58:57.549Z,79.35
2018-11-23T02:01:29.390Z,77.05
2018-11-23T02:03:59.302Z,76.75
2018-11-23T02:06:34.762Z,79.10
2018-11-23T02:09:08.838Z,77.42
2018-11-23T02:11:40.733Z,72.15
2018-11-23T02:14:12.550Z,67.42
2018-11-23T02:16:45.917Z,75.67
2018-11-23T02:19:16.762Z,80.57
2018-11-23T02:21:46.614Z,80.12
2018-11-23T02:24:16.522Z,74.07
2018-11-23T02:26:46.431Z,79.15
2018-11-23T02:29:17.282Z,76.40
2018-11-23T02:31:47.202Z,71.22
2018-11-23T02:34:19.066Z,89.85
2018-11-23T02:36:49.930Z,82.12
2018-11-23T02:39:19.642Z,74.30
2018-11-23T02:41:49.486Z,71.20
2018-11-23T02:44:20.254Z,85.03
2018-11-23T02:46:52.117Z,79.03
2018-11-23T02:49:21.931Z,76.20
2018-11-23T02:51:51.726Z,74.82
2018-11-23T02:54:23.494Z,85.97
2018-11-23T02:57:00.386Z,94.28
2018-11-23T02:59:43.543Z,80.15
2018-11-23T03:02:13.410Z,91.05
2018-11-23T03:04:44.287Z,79.15
2018-11-23T03:07:14.163Z,68.87
2018-11-23T03:09:50.850Z,71.92
2018-11-23T03:12:21.666Z,66.97
2018-11-23T03:14:52.463Z,81.72
2018-11-23T03:17:38.751Z,89.40
2018-11-23T03:20:12.862Z,79.80
2018-11-23T03:22:47.589Z,93.42
2018-11-23T03:25:18.439Z,82.22
2018-11-23T03:27:50.324Z,85.60
2018-11-23T03:30:23.242Z,90.28
2018-11-23T03:32:56.590Z,86.82
2018-11-23T03:35:30.055Z,89.03
2018-11-23T03:38:00.871Z,84.05
2018-11-23T03:40:30.845Z,81.92
2018-11-23T03:43:00.623Z,86.60
2018-11-23T03:45:34.490Z,83.20
2018-11-23T03:48:04.419Z,93.30
2018-11-23T03:50:36.315Z,77.90
2018-11-23T03:53:10.867Z,80.53
2018-11-23T03:55:44.871Z,87.78
2018-11-23T03:58:14.651Z,88.25
2018-11-23T04:00:44.530Z,89.45
2018-11-23T04:03:16.339Z,87.82
2018-11-23T04:05:54.828Z,83.70
2018-11-23T04:08:28.651Z,84.50
2018-11-23T04:11:00.456Z,84.55
2018-11-23T04:13:31.327Z,88.45
2018-11-23T04:16:05.346Z,88.78
2018-11-23T04:18:37.246Z,95.12
2018-11-23T04:21:07.503Z,97.00
2018-11-23T04:23:37.378Z,89.15
2018-11-23T04:26:10.850Z,111.57
2018-11-23T04:28:41.735Z,94.60
2018-11-23T04:31:11.651Z,93.15
2018-11-23T04:33:41.507Z,89.20
2018-11-23T04:36:12.999Z,92.33
2018-11-23T04:38:42.891Z,93.10
2018-11-23T04:41:25.955Z,101.67
2018-11-23T04:43:56.843Z,99.95
2018-11-23T04:46:27.713Z,102.85
2018-11-23T04:48:59.591Z,91.22
2018-11-23T04:51:37.103Z,101.42
2018-11-23T04:54:09.014Z,107.75
2018-11-23T04:56:41.647Z,89.77
2018-11-23T04:59:17.675Z,99.22
2018-11-23T05:01:48.647Z,108.52
2018-11-23T05:04:19.065Z,116.88
2018-11-23T05:06:49.916Z,98.03
2018-11-23T05:09:22.831Z,105.70
2018-11-23T05:11:52.767Z,97.57
2018-11-23T05:14:22.643Z,97.50
2018-11-23T05:16:57.795Z,92.30
2018-11-23T05:19:31.715Z,110.10
2018-11-23T05:22:04.639Z,105.52
2018-11-23T05:24:35.526Z,97.97
2018-11-23T05:27:05.887Z,119.05
2018-11-23T05:29:37.266Z,114.77
2018-11-23T05:32:08.231Z,111.92
2018-11-23T05:34:38.159Z,118.75
2018-11-23T05:37:09.012Z,121.35
2018-11-23T05:39:38.891Z,118.20
2018-11-23T05:42:08.792Z,116.17
2018-11-23T05:44:44.679Z,116.37
2018-11-23T05:47:41.491Z,112.15
2018-11-23T05:50:22.772Z,118.67
2018-11-23T05:52:57.844Z,106.67
2018-11-23T05:55:28.780Z,126.33
2018-11-23T05:57:58.778Z,132.25
2018-11-23T06:00:30.251Z,119.25
2018-11-23T06:03:00.024Z,118.50
2018-11-23T06:05:31.826Z,108.85
2018-11-23T06:08:04.955Z,113.10
2018-11-23T06:10:39.218Z,113.03
2018-11-23T06:13:12.326Z,103.85
2018-11-23T06:15:44.610Z,113.20
2018-11-23T06:18:13.130Z,125.82
2018-11-23T06:20:43.078Z,129.55
2018-11-23T06:23:13.911Z,107.90
2018-11-23T06:25:50.990Z,112.75
2018-11-23T06:28:21.170Z,119.72
2018-11-23T06:30:52.022Z,116.90
2018-11-23T06:33:41.252Z,124.25
2018-11-23T06:36:13.203Z,125.97
2018-11-23T06:38:43.093Z,136.65
2018-11-23T06:41:14.990Z,132.63
2018-11-23T06:43:44.854Z,129.47
2018-11-23T06:46:14.766Z,133.45
2018-11-23T06:48:44.638Z,115.62
2018-11-23T06:51:15.494Z,139.70
2018-11-23T06:53:47.301Z,138.40
2018-11-23T06:56:17.151Z,140.00
2018-11-23T06:58:51.483Z,140.80
2018-11-23T07:01:21.354Z,135.52
2018-11-23T07:04:00.630Z,145.05
2018-11-23T07:06:32.498Z,125.45
2018-11-23T07:09:02.651Z,133.55
2018-11-23T07:11:34.610Z,138.43
2018-11-23T07:14:05.583Z,121.72
2018-11-23T07:16:39.614Z,116.67
2018-11-23T07:19:09.421Z,134.12
2018-11-23T07:21:39.325Z,133.57
2018-11-23T07:24:09.170Z,131.00
2018-11-23T07:26:42.638Z,125.60
2018-11-23T07:29:12.506Z,137.55
2018-11-23T07:31:54.694Z,123.33
2018-11-23T07:34:27.832Z,127.47
2018-11-23T07:36:57.618Z,132.37
2018-11-23T07:39:44.522Z,120.90
2018-11-23T07:42:20.566Z,118.45
2018-11-23T07:44:51.395Z,111.32
2018-11-23T07:47:21.194Z,110.50
2018-11-23T07:49:56.290Z,123.72
2018-11-23T07:52:26.078Z,105.22
2018-11-23T07:54:55.854Z,118.28
2018-11-23T07:57:25.782Z,105.05
2018-11-23T07:59:55.566Z,98.75
2018-11-23T08:02:28.882Z,105.97
2018-11-23T08:04:58.700Z,97.37
2018-11-23T08:07:32.634Z,95.67
2018-11-23T08:10:02.702Z,110.03
2018-11-23T08:12:34.562Z,98.75
2018-11-23T08:15:14.454Z,92.55
2018-11-23T08:17:58.171Z,89.20
2018-11-23T08:20:28.078Z,90.20
2018-11-23T08:22:57.982Z,82.95
2018-11-23T08:25:27.883Z,86.78
2018-11-23T08:27:59.690Z,79.07
2018-11-23T08:30:39.440Z,79.67
2018-11-23T08:33:09.206Z,81.60
2018-11-23T08:35:39.998Z,78.92
2018-11-23T08:38:10.833Z,78.60
2018-11-23T08:40:43.726Z,73.67
2018-11-23T08:43:17.719Z,75.25
2018-11-23T08:45:47.582Z,65.70
2018-11-23T08:48:17.454Z,59.35
2018-11-23T08:50:51.410Z,72.82
2018-11-23T08:53:27.952Z,68.28
2018-11-23T08:55:58.182Z,65.80
2018-11-23T08:58:28.026Z,68.72
2018-11-23T09:00:58.043Z,72.08
2018-11-23T09:03:27.830Z,71.67
2018-11-23T09:05:58.607Z,76.20
2018-11-23T09:08:30.389Z,63.55
2018-11-23T09:11:00.274Z,56.33
2018-11-23T09:13:30.114Z,71.02
2018-11-23T09:16:00.922Z,70.60
2018-11-23T09:18:31.818Z,66.28
2018-11-23T09:21:01.675Z,70.55
2018-11-23T09:23:31.428Z,75.85
2018-11-23T09:26:08.982Z,65.78
2018-11-23T09:28:55.946Z,67.80
2018-11-23T09:31:26.836Z,75.05
2018-11-23T09:33:58.255Z,66.45
2018-11-23T09:36:29.079Z,64.53
2018-11-23T09:38:59.850Z,71.95
2018-11-23T09:41:30.622Z,61.15
2018-11-23T09:44:01.935Z,71.57
2018-11-23T09:46:33.355Z,55.38
2018-11-23T09:49:07.990Z,56.58
2018-11-23T09:51:38.822Z,62.67
2018-11-23T09:54:22.044Z,52.55
2018-11-23T09:56:52.834Z,46.35
2018-11-23T09:59:22.622Z,59.63
2018-11-23T10:01:53.507Z,54.58
2018-11-23T10:04:24.326Z,53.48
2018-11-23T10:06:54.142Z,55.25
2018-11-23T10:09:33.508Z,58.60
2018-11-23T10:12:07.342Z,65.87
2018-11-23T10:14:39.154Z,64.22
2018-11-23T10:17:12.738Z,54.67
2018-11-23T10:19:43.551Z,59.40
2018-11-23T10:22:15.480Z,57.27
2018-11-23T10:24:48.374Z,59.45
2018-11-23T10:27:18.190Z,52.50
2018-11-23T10:29:54.989Z,53.00
2018-11-23T10:32:19.142Z,60.60
2018-11-23T10:34:48.987Z,46.73
2018-11-23T10:37:23.018Z,64.30
2018-11-23T10:39:52.906Z,55.00
2018-11-23T10:42:22.836Z,51.13
2018-11-23T10:44:53.654Z,54.27
2018-11-23T10:47:43.019Z,50.45
2018-11-23T10:50:17.159Z,54.53
2018-11-23T10:52:54.962Z,45.52
2018-11-23T10:55:37.822Z,61.85
2018-11-23T10:58:08.843Z,51.08
2018-11-23T11:00:44.030Z,55.00
2018-11-23T11:03:33.887Z,55.85
2018-11-23T11:06:13.422Z,55.08
2018-11-23T11:08:46.775Z,53.08
2018-11-23T11:11:16.696Z,53.58
2018-11-23T11:13:47.527Z,51.08
2018-11-23T11:16:17.471Z,58.42
2018-11-23T11:18:48.350Z,55.92
2018-11-23T11:21:19.195Z,54.45
2018-11-23T11:23:49.056Z,52.70
2018-11-23T11:26:18.935Z,56.68
2018-11-23T11:28:58.654Z,52.33
2018-11-23T11:31:29.647Z,50.23
2018-11-23T11:33:59.510Z,48.48
2018-11-23T11:36:30.375Z,59.55
2018-11-23T11:39:00.274Z,46.55
2018-11-23T11:41:30.083Z,55.67
2018-11-23T11:43:59.864Z,57.10
2018-11-23T11:46:42.313Z,54.67
2018-11-23T11:49:14.155Z,52.93
2018-11-23T11:51:45.930Z,64.67
2018-11-23T11:54:15.817Z,69.82
2018-11-23T11:56:49.414Z,48.55
2018-11-23T11:59:25.622Z,53.15
2018-11-23T12:01:56.515Z,62.38
2018-11-23T12:04:29.415Z,56.10
2018-11-23T12:06:59.239Z,53.05
2018-11-23T12:09:29.135Z,54.27
2018-11-23T12:11:58.964Z,63.10
2018-11-23T12:14:28.834Z,61.88
2018-11-23T12:16:58.606Z,54.13
2018-11-23T12:19:29.480Z,52.62
2018-11-23T12:21:59.303Z,63.42
2018-11-23T12:24:30.582Z,64.82
2018-11-23T12:27:01.443Z,57.35
2018-11-23T12:29:36.883Z,59.65
2018-11-23T12:32:14.458Z,74.15
2018-11-23T12:34:47.144Z,60.88
2018-11-23T12:37:17.958Z,61.13
2018-11-23T12:39:51.831Z,59.85
2018-11-23T12:42:22.902Z,61.65
2018-11-23T12:44:56.419Z,64.17
2018-11-23T12:47:26.322Z,57.65
2018-11-23T12:49:56.238Z,70.28
2018-11-23T12:52:27.055Z,58.75
2018-11-23T12:54:57.891Z,52.40
2018-11-23T12:57:28.699Z,49.18
2018-11-23T12:59:58.579Z,55.20
2018-11-23T13:02:28.411Z,56.98
2018-11-23T13:05:00.195Z,53.42
2018-11-23T13:07:34.323Z,55.83
2018-11-23T13:10:07.062Z,71.62
2018-11-23T13:12:37.943Z,58.68
2018-11-23T13:15:08.779Z,60.10
2018-11-23T13:17:38.604Z,64.42
2018-11-23T13:20:11.555Z,55.78
2018-11-23T13:22:42.455Z,59.80
2018-11-23T13:25:17.619Z,55.08
2018-11-23T13:27:47.471Z,63.42
2018-11-23T13:30:25.434Z,55.30
2018-11-23T13:32:58.403Z,56.68
2018-11-23T13:35:29.272Z,51.23
2018-11-23T13:37:59.102Z,55.50
2018-11-23T13:40:31.430Z,60.50
2018-11-23T13:43:15.939Z,60.45
2018-11-23T13:45:45.861Z,59.88
2018-11-23T13:48:19.844Z,57.65
2018-11-23T13:50:46.618Z,55.67
2018-11-23T13:53:16.555Z,59.10
2018-11-23T13:55:46.840Z,53.73
2018-11-23T13:58:17.679Z,59.60
2018-11-23T14:00:49.523Z,54.83
2018-11-23T14:03:22.351Z,57.73
2018-11-23T14:05:52.367Z,56.28
2018-11-23T14:08:27.203Z,55.67
2018-11-23T14:10:57.023Z,51.40
2018-11-23T14:13:30.363Z,52.10
2018-11-23T14:16:01.207Z,57.98
2018-11-23T14:18:31.087Z,47.88
2018-11-23T14:21:00.915Z,48.58
2018-11-23T14:23:40.299Z,50.98
2018-11-23T14:26:13.731Z,51.25
2018-11-23T14:28:44.539Z,45.15
2018-11-23T14:31:15.425Z,51.90
2018-11-23T14:33:46.207Z,58.80
2018-11-23T14:36:19.655Z,51.23
2018-11-23T14:38:50.539Z,50.83
2018-11-23T14:41:23.383Z,57.00
2018-11-23T14:43:53.279Z,55.83
2018-11-23T14:46:23.088Z,52.70
2018-11-23T14:48:52.875Z,55.92
2018-11-23T14:51:22.655Z,61.33
2018-11-23T14:53:52.439Z,52.85
2018-11-23T14:56:22.339Z,53.42
2018-11-23T14:58:52.116Z,48.73
2018-11-23T15:01:22.992Z,57.33
2018-11-23T15:03:52.771Z,55.83
2018-11-23T15:06:22.523Z,55.63
2018-11-23T15:08:52.408Z,50.28
2018-11-23T15:11:22.219Z,57.53
2018-11-23T15:13:52.059Z,48.17
2018-11-23T15:16:21.839Z,54.73
2018-11-23T15:18:51.639Z,57.20
2018-11-23T15:21:22.431Z,56.80
2018-11-23T15:23:52.299Z,58.20
2018-11-23T15:26:23.475Z,54.53
2018-11-23T15:28:53.375Z,46.48
2018-11-23T15:34:02.675Z,58.60
2018-11-23T15:36:32.891Z,52.93
2018-11-23T15:39:04.455Z,53.65
2018-11-23T15:41:34.363Z,54.48
2018-11-23T15:44:09.835Z,59.18
2018-11-23T15:46:40.691Z,60.88
2018-11-23T15:49:10.512Z,54.00
2018-11-23T15:51:40.419Z,84.45
2018-11-23T15:54:12.675Z,102.25
2018-11-23T15:56:48.243Z,65.42
2018-11-23T15:59:20.059Z,66.30
2018-11-23T16:01:49.929Z,58.13
2018-11-23T16:04:20.699Z,58.50
2018-11-23T16:06:54.007Z,54.48
2018-11-23T16:09:24.827Z,59.53
2018-11-23T16:11:55.731Z,60.40
2018-11-23T16:14:26.972Z,59.98
2018-11-23T16:16:57.771Z,71.95
2018-11-23T16:19:28.527Z,59.55
2018-11-23T16:22:09.615Z,64.37
2018-11-23T16:24:43.519Z,63.60
2018-11-23T16:27:20.409Z,62.10
2018-11-23T16:29:56.719Z,62.13
2018-11-23T16:32:30.464Z,62.35
2018-11-23T16:35:00.327Z,58.08
2018-11-23T16:37:37.072Z,61.63
2018-11-23T16:40:14.063Z,54.58
2018-11-23T16:42:44.959Z,58.48
2018-11-23T16:45:21.868Z,53.05
2018-11-23T16:47:54.666Z,57.15
2018-11-23T16:50:31.271Z,69.85
2018-11-23T16:53:05.959Z,64.27
2018-11-23T16:55:53.600Z,60.08
2018-11-23T16:58:23.479Z,61.65
2018-11-23T17:00:53.340Z,66.60
2018-11-23T17:03:24.221Z,59.58
2018-11-23T17:05:56.093Z,64.32
2018-11-23T17:08:27.903Z,61.68
2018-11-23T17:10:57.715Z,60.90
2018-11-23T17:13:31.939Z,61.13
2018-11-23T17:16:07.451Z,57.23
2018-11-23T17:18:37.311Z,66.37
2018-11-23T17:21:07.211Z,60.10
2018-11-23T17:23:38.236Z,66.17
2018-11-23T17:26:19.963Z,64.30
2018-11-23T17:28:54.068Z,68.37
2018-11-23T17:31:28.299Z,62.88
2018-11-23T17:33:58.747Z,61.13
2018-11-23T17:36:38.788Z,54.85
2018-11-23T17:39:10.851Z,56.50
2018-11-23T17:41:41.747Z,64.97
2018-11-23T17:44:13.580Z,68.92
2018-11-23T17:46:44.431Z,62.08
2018-11-23T17:49:15.247Z,67.90
2018-11-23T17:51:45.036Z,69.72
2018-11-23T17:54:15.911Z,60.85
2018-11-23T17:56:46.760Z,68.85
2018-11-23T17:59:17.555Z,64.40
2018-11-23T18:01:53.223Z,67.15
2018-11-23T18:04:23.075Z,74.25
2018-11-23T18:06:57.373Z,59.30
2018-11-23T18:09:27.404Z,71.75
2018-11-23T18:11:58.220Z,65.25
2018-11-23T18:14:31.239Z,76.40
2018-11-23T18:17:03.287Z,68.52
2018-11-23T18:19:33.192Z,65.25
2018-11-23T18:22:04.048Z,74.32
2018-11-23T18:24:33.799Z,73.80
2018-11-23T18:27:03.631Z,75.65
2018-11-23T18:29:33.460Z,84.13
2018-11-23T18:32:06.812Z,82.85
2018-11-23T18:34:37.628Z,70.12
2018-11-23T18:37:11.380Z,72.03
2018-11-23T18:39:42.548Z,75.15
2018-11-23T18:42:12.463Z,73.20
2018-11-23T18:44:48.080Z,71.82
2018-11-23T18:47:17.971Z,72.30
2018-11-23T18:49:49.796Z,68.83
2018-11-23T18:52:25.604Z,75.65
2018-11-23T18:54:57.392Z,69.22
2018-11-23T18:57:32.700Z,71.42
2018-11-23T19:00:02.575Z,75.40
2018-11-23T19:02:55.040Z,69.50
2018-11-23T19:05:27.607Z,71.33
2018-11-23T19:07:57.502Z,62.35
2018-11-23T19:10:27.432Z,70.83
2018-11-23T19:12:57.379Z,68.42
2018-11-23T19:15:29.263Z,63.13
2018-11-23T19:18:07.116Z,63.42
2018-11-23T19:20:55.464Z,69.67
2018-11-23T19:23:34.773Z,69.05
2018-11-23T19:26:07.207Z,69.82
2018-11-23T19:28:38.100Z,65.80
2018-11-23T19:31:12.141Z,68.83
2018-11-23T19:33:45.268Z,59.77
2018-11-23T19:36:15.144Z,69.70
2018-11-23T19:38:46.015Z,68.80
2018-11-23T19:41:17.163Z,72.78
2018-11-23T19:43:46.984Z,72.00
2018-11-23T19:46:16.880Z,73.75
2018-11-23T19:48:47.836Z,68.97
2018-11-23T19:51:19.716Z,69.53
2018-11-23T19:53:49.587Z,72.62
2018-11-23T19:56:19.868Z,72.00
2018-11-23T19:58:49.764Z,77.30
2018-11-23T20:01:23.477Z,73.92
2018-11-23T20:03:56.599Z,79.05
2018-11-23T20:06:30.419Z,67.55
2018-11-23T20:09:00.522Z,71.77
2018-11-23T20:11:35.031Z,79.82
2018-11-23T20:14:08.988Z,73.20
2018-11-23T20:16:39.080Z,73.95
2018-11-23T20:19:09.968Z,73.97
2018-11-23T20:21:44.316Z,66.42
2018-11-23T20:24:14.161Z,66.53
2018-11-23T20:26:44.152Z,63.60
2018-11-23T20:29:16.092Z,67.20
2018-11-23T20:31:47.585Z,62.20
2018-11-23T20:34:18.576Z,66.10
2018-11-23T20:36:48.471Z,62.25
2018-11-23T20:39:19.377Z,65.75
2018-11-23T20:41:55.240Z,68.62
2018-11-23T20:44:25.628Z,75.17
2018-11-23T20:46:57.660Z,65.45
2018-11-23T20:49:27.564Z,69.40
2018-11-23T20:51:57.424Z,63.80
2018-11-23T20:54:30.544Z,68.52
2018-11-23T20:57:03.928Z,66.00
2018-11-23T20:59:38.757Z,63.70
2018-11-23T21:02:05.913Z,64.03
2018-11-23T21:04:37.723Z,62.43
2018-11-23T21:07:07.568Z,64.00
2018-11-23T21:09:37.340Z,62.33
2018-11-23T21:12:08.208Z,64.92
2018-11-23T21:14:39.032Z,61.02
2018-11-23T21:17:08.856Z,64.15
2018-11-23T21:19:39.708Z,70.10
2018-11-23T21:22:11.608Z,62.80
2018-11-23T21:24:41.505Z,63.80
2018-11-23T21:27:11.388Z,67.37
2018-11-23T21:29:41.344Z,55.83
2018-11-23T21:32:12.236Z,58.63
2018-11-23T21:34:43.088Z,54.30
2018-11-23T21:37:13.020Z,64.22
2018-11-23T21:39:43.018Z,66.05
2018-11-23T21:42:13.712Z,55.85
2018-11-23T21:44:49.120Z,63.92
2018-11-23T21:47:20.940Z,63.40
2018-11-23T21:49:50.840Z,62.27
2018-11-23T21:52:20.680Z,68.78
2018-11-23T21:54:55.811Z,64.90
2018-11-23T21:57:27.640Z,54.67
2018-11-23T21:59:57.746Z,65.60
2018-11-23T22:02:28.124Z,63.02
2018-11-23T22:05:00.196Z,55.43
2018-11-23T22:07:31.108Z,54.25
2018-11-23T22:10:00.920Z,62.10
2018-11-23T22:12:31.712Z,55.38
2018-11-23T22:15:09.248Z,58.02
2018-11-23T22:17:39.226Z,56.42
2018-11-23T22:20:17.097Z,51.13
2018-11-23T22:22:48.968Z,51.05
2018-11-23T22:25:21.281Z,55.45
2018-11-23T22:27:53.185Z,49.55
2018-11-23T22:30:29.000Z,51.68
2018-11-23T22:32:59.249Z,47.78
2018-11-23T22:35:33.064Z,48.83
2018-11-23T22:38:03.984Z,50.92
2018-11-23T22:40:34.948Z,52.83
2018-11-23T22:43:06.137Z,49.35
2018-11-23T22:45:38.004Z,48.23
2018-11-23T22:48:11.084Z,50.88
2018-11-23T22:50:40.912Z,51.30
2018-11-23T22:53:11.833Z,51.98
2018-11-23T22:55:44.392Z,51.00
2018-11-23T22:58:16.188Z,51.45
2018-11-23T23:00:46.188Z,48.50
2018-11-23T23:03:16.040Z,42.20
2018-11-23T23:05:45.932Z,45.08
2018-11-23T23:08:15.904Z,44.05
2018-11-23T23:10:46.772Z,46.25
2018-11-23T23:13:16.666Z,45.88
2018-11-23T23:15:51.577Z,50.52
2018-11-23T23:18:23.468Z,45.30
2018-11-23T23:20:55.408Z,46.53
2018-11-23T23:23:25.544Z,41.95
2018-11-23T23:25:56.304Z,45.17
2018-11-23T23:28:27.781Z,50.55
2018-11-23T23:31:00.749Z,51.13
2018-11-23T23:33:31.526Z,39.78
2018-11-23T23:36:02.433Z,39.78
2018-11-23T23:38:33.545Z,41.92
2018-11-23T23:41:03.442Z,40.55
2018-11-23T23:43:34.292Z,41.85
2018-11-23T23:46:06.154Z,39.27
2018-11-23T23:48:36.053Z,40.83
2018-11-23T23:51:06.824Z,43.42
2018-11-23T23:53:36.712Z,44.25
2018-11-23T23:56:07.261Z,42.17
2018-11-23T23:58:38.034Z,41.10
